Wind Star — C6CA9 — position and weather

sailwx.info

Track history (hours):
 
Tides and Currents Weather Stations Pressure Air Temp Water Temp Dewpoint Dewpoint Depression Visibility Wind Speed Wind Dir Waves Ship Positions

Wind Star

Operator: Holland America Line

Last reported at 2019-Apr-23 19:42 UTC. Time now 2019-Apr-24 22:16 UTC.
Position N 39°06' E 002°59'.

Length 134 m; draft 4.1 m.

Type: Ship. MMSI: 309163000.

Date/timePositionNaut miles runAvg speedWind from/ knotsBaromVisibWave heightAir tempDewpointWater temp
2019-Apr-23 19:42N 39°06' E 002°59'20 8.3
2019-Apr-23 17:19N 39°20' E 002°41'3 8.4
2019-Apr-23 17:00N 39°23' E 002°41'4 8.5
2019-Apr-23 16:30N 39°27' E 002°40'4 8.4
2019-Apr-23 16:01N 39°31' E 002°39'2 4.5
2019-Apr-23 15:31N 39°33' E 002°38'0 0.0
2019-Apr-23 14:58N 39°33' E 002°38'0 0.0
2019-Apr-23 14:28N 39°33' E 002°38'0 0.0
2019-Apr-23 14:01N 39°33' E 002°38'0 0.0
2019-Apr-23 13:28N 39°33' E 002°38'0 0.0
2019-Apr-23 13:01N 39°33' E 002°38'0 0.0
2019-Apr-23 12:31N 39°33' E 002°38'0 0.0
2019-Apr-23 11:58N 39°33' E 002°38'0 0.0
2019-Apr-23 11:31N 39°33' E 002°38'0 0.0
2019-Apr-23 11:01N 39°33' E 002°38'0 0.0
2019-Apr-23 10:28N 39°33' E 002°38'0 0.0
2019-Apr-23 09:58N 39°33' E 002°38'0 0.0
2019-Apr-23 09:31N 39°33' E 002°38'0 0.0
2019-Apr-23 08:58N 39°33' E 002°38'0 0.0
2019-Apr-23 08:31N 39°33' E 002°38'0 0.0
2019-Apr-23 08:01N 39°33' E 002°38'0 0.0
2019-Apr-23 07:28N 39°33' E 002°38'0 0.0
2019-Apr-23 07:01N 39°33' E 002°38'0 0.6
2019-Apr-23 06:30N 39°33' E 002°38'2 4.4
2019-Apr-23 06:00N 39°31' E 002°38'3 5.1
2019-Apr-23 05:30N 39°29' E 002°36'3 6.8
2019-Apr-23 05:00N 39°27' E 002°33'3 6.5
2019-Apr-23 04:29N 39°26' E 002°29'3 6.7
2019-Apr-23 04:00N 39°28' E 002°25'97 9.1
2019-Apr-22 17:23N 41°03' E 002°05'4 9.9
2019-Apr-22 17:00N 41°07' E 002°06'510.0
2019-Apr-22 16:30N 41°12' E 002°09'5 9.6
2019-Apr-22 16:00N 41°16' E 002°10'5 9.2
2019-Apr-22 15:30N 41°21' E 002°10'0 0.9
2019-Apr-22 15:00N 41°21' E 002°11'0 0.0
2019-Apr-22 14:30N 41°21' E 002°11'0 0.0
2019-Apr-22 14:00N 41°21' E 002°11'0 0.0
2019-Apr-22 13:30N 41°21' E 002°11'0 0.0
2019-Apr-22 13:00N 41°21' E 002°11'0 0.0
2019-Apr-22 12:30N 41°21' E 002°11'0 0.0
2019-Apr-22 12:00N 41°21' E 002°11'0 0.0
2019-Apr-22 11:30N 41°21' E 002°11'0 0.0
2019-Apr-22 11:00N 41°21' E 002°11'0 0.0
2019-Apr-22 10:30N 41°21' E 002°11'0 0.0
2019-Apr-22 10:00N 41°21' E 002°11'0 0.0
2019-Apr-22 09:30N 41°21' E 002°11'0 0.0
2019-Apr-22 09:00N 41°21' E 002°11'0 0.0
2019-Apr-22 08:30N 41°21' E 002°11'0 0.0
2019-Apr-22 08:00N 41°21' E 002°11'0 0.0
2019-Apr-22 07:30N 41°21' E 002°11'0 0.0
2019-Apr-22 07:00N 41°21' E 002°11'0 0.0
2019-Apr-22 06:30N 41°21' E 002°11'0 0.0
2019-Apr-22 06:00N 41°21' E 002°11'0 0.0
2019-Apr-22 05:30N 41°21' E 002°11'0 0.0
2019-Apr-22 05:00N 41°21' E 002°11'0 0.0
2019-Apr-22 04:30N 41°21' E 002°11'0 0.0
2019-Apr-22 04:00N 41°21' E 002°11'0 0.0
2019-Apr-22 03:30N 41°21' E 002°11'0 0.0
2019-Apr-22 02:57N 41°21' E 002°11'0 0.0
2019-Apr-22 02:30N 41°21' E 002°11'0 0.0
2019-Apr-22 02:00N 41°21' E 002°11'0 0.0
2019-Apr-22 01:30N 41°21' E 002°11'0 0.0
2019-Apr-22 01:00N 41°21' E 002°11'0 0.0
2019-Apr-22 00:30N 41°21' E 002°11'0 0.0
2019-Apr-22 00:00N 41°21' E 002°11'0 0.0
2019-Apr-21 23:30N 41°21' E 002°11'0 0.0
2019-Apr-21 23:00N 41°21' E 002°11'0 0.0
2019-Apr-21 22:30N 41°21' E 002°11'0 0.0
2019-Apr-21 22:00N 41°21' E 002°11'0 0.0
2019-Apr-21 21:30N 41°21' E 002°11'0 0.0
2019-Apr-21 20:57N 41°21' E 002°11'0 0.0
2019-Apr-21 20:30N 41°21' E 002°11'0 0.0
2019-Apr-21 20:00N 41°21' E 002°11'0 0.0
2019-Apr-21 19:30N 41°21' E 002°11'0 0.0
2019-Apr-21 19:00N 41°21' E 002°11'0 0.0
2019-Apr-21 18:30N 41°21' E 002°11'0 0.0
2019-Apr-21 18:00N 41°21' E 002°11'0 0.2
2019-Apr-21 17:30N 41°21' E 002°10'2 3.2
2019-Apr-21 17:00N 41°20' E 002°10'3 5.3
2019-Apr-21 16:30N 41°17' E 002°11'2 4.6
2019-Apr-21 16:00N 41°16' E 002°14'2 3.8
2019-Apr-21 15:30N 41°15' E 002°12'2 3.5
2019-Apr-21 15:00N 41°14' E 002°10'3 5.6
2019-Apr-21 14:30N 41°11' E 002°08'3 5.9
2019-Apr-21 14:00N 41°09' E 002°07'3 5.9
2019-Apr-21 13:26N 41°05' E 002°05'2 5.6
2019-Apr-21 13:00N 41°03' E 002°04'3 5.5
2019-Apr-21 12:26N 41°01' E 002°02'  
2019-Apr-18 16:56N 36°46' W 002°27'4 8.1
2019-Apr-18 16:30N 36°50' W 002°28'0 0.3
2019-Apr-18 15:59N 36°50' W 002°28'0 0.0
2019-Apr-18 15:29N 36°50' W 002°28'0 0.0
2019-Apr-18 14:59N 36°50' W 002°28'0 0.0
2019-Apr-18 14:29N 36°50' W 002°28'0 0.0
2019-Apr-18 13:59N 36°50' W 002°28'0 0.0
2019-Apr-18 13:29N 36°50' W 002°28'0 0.0
2019-Apr-18 12:59N 36°50' W 002°28'0 0.0
2019-Apr-18 12:29N 36°50' W 002°28'0 0.0
2019-Apr-18 11:56N 36°50' W 002°28'0 0.0
2019-Apr-18 11:26N 36°50' W 002°28'0 0.0
2019-Apr-18 10:56N 36°50' W 002°28'0 0.0
2019-Apr-18 10:29N 36°50' W 002°28'0 0.0
2019-Apr-18 09:53N 36°50' W 002°28'0 0.0
2019-Apr-18 09:29N 36°50' W 002°28'0 0.0
2019-Apr-18 08:56N 36°50' W 002°28'0 0.0
2019-Apr-18 08:26N 36°50' W 002°28'0 0.0
2019-Apr-18 07:56N 36°50' W 002°28'0 0.0
2019-Apr-18 07:29N 36°50' W 002°28'0 0.0
2019-Apr-18 06:59N 36°50' W 002°28'0 0.0
2019-Apr-18 06:29N 36°50' W 002°28'0 0.0
2019-Apr-18 05:41N 36°50' W 002°28'0 0.0
2019-Apr-18 05:29N 36°50' W 002°28'0 0.0
2019-Apr-18 05:00N 36°50' W 002°28'0 0.1
2019-Apr-18 04:30N 36°50' W 002°28'1 3.0
2019-Apr-18 04:01N 36°48' W 002°28'4 7.3
2019-Apr-18 03:30N 36°45' W 002°30'  
2019-Apr-15 04:34N 36°52' W 009°34'12 8.5
2019-Apr-15 03:09N 37°04' W 009°36'4 8.2
2019-Apr-15 02:40N 37°08' W 009°36'4 8.1
2019-Apr-15 02:07N 37°12' W 009°35'1 8.1
2019-Apr-15 01:58N 37°14' W 009°35'510.0
2019-Apr-15 01:29N 37°18' W 009°34'510.9
2019-Apr-15 01:00N 37°24' W 009°33'611.1
2019-Apr-15 00:30N 37°29' W 009°33'611.3
2019-Apr-14 23:59N 37°35' W 009°32'711.5
2019-Apr-14 23:22N 37°42' W 009°31'411.5
2019-Apr-14 23:00N 37°46' W 009°31'611.3
2019-Apr-14 22:30N 37°52' W 009°30'611.2
2019-Apr-14 22:00N 37°57' W 009°29'611.3
2019-Apr-14 21:30N 38°03' W 009°28'611.1
2019-Apr-14 21:00N 38°08' W 009°27'510.7
2019-Apr-14 20:30N 38°14' W 009°27'510.8
2019-Apr-14 20:00N 38°19' W 009°26'511.0
2019-Apr-14 19:30N 38°25' W 009°25'511.0
2019-Apr-14 19:00N 38°30' W 009°24'510.9
2019-Apr-14 18:30N 38°35' W 009°23'5 9.1
2019-Apr-14 18:00N 38°39' W 009°20'5 9.7
2019-Apr-14 17:29N 38°41' W 009°14'510.4
2019-Apr-14 17:00N 38°42' W 009°08'1 1.1
2019-Apr-14 16:28N 38°43' W 009°07'0 0.0
2019-Apr-14 15:58N 38°43' W 009°07'0 0.0
2019-Apr-14 15:19N 38°43' W 009°07'0 0.0
2019-Apr-14 14:58N 38°43' W 009°07'0 0.0
2019-Apr-14 14:28N 38°43' W 009°07'0 0.0
2019-Apr-14 13:55N 38°43' W 009°07'0 0.0
2019-Apr-14 13:28N 38°43' W 009°07'0 0.0
2019-Apr-14 12:58N 38°43' W 009°07'0 0.0
2019-Apr-14 12:25N 38°43' W 009°07'0 0.0
2019-Apr-14 11:55N 38°43' W 009°07'0 0.0
2019-Apr-14 11:28N 38°43' W 009°07'0 0.0
2019-Apr-14 10:55N 38°43' W 009°07'0 0.0
2019-Apr-14 10:28N 38°43' W 009°07'0 0.0
2019-Apr-14 09:55N 38°43' W 009°07'0 0.0
2019-Apr-14 09:28N 38°43' W 009°07'0 0.0
2019-Apr-14 08:58N 38°43' W 009°07'0 0.0
2019-Apr-14 08:28N 38°43' W 009°07'0 0.0
2019-Apr-14 07:58N 38°43' W 009°07'0 0.0
2019-Apr-14 07:25N 38°43' W 009°07'0 0.0
2019-Apr-14 06:58N 38°43' W 009°07'0 0.0
2019-Apr-14 06:28N 38°43' W 009°07'0 0.0
2019-Apr-14 05:58N 38°43' W 009°07'0 0.0
2019-Apr-14 05:28N 38°43' W 009°07'0 0.0
2019-Apr-14 04:55N 38°43' W 009°07'0 0.0
2019-Apr-14 04:25N 38°43' W 009°07'0 0.0
2019-Apr-14 03:52N 38°43' W 009°07'0 0.0
2019-Apr-14 03:28N 38°43' W 009°07'0 0.0
2019-Apr-14 02:55N 38°43' W 009°07'0 0.0
2019-Apr-14 02:28N 38°43' W 009°07'0 0.0
2019-Apr-14 01:58N 38°43' W 009°07'0 0.0
2019-Apr-14 01:25N 38°43' W 009°07'0 0.0
2019-Apr-14 00:58N 38°43' W 009°07'0 0.0
2019-Apr-14 00:28N 38°43' W 009°07'0 0.0
2019-Apr-13 23:55N 38°43' W 009°07'0 0.0
2019-Apr-13 23:28N 38°43' W 009°07'0 0.0
2019-Apr-13 22:58N 38°43' W 009°07'0 0.0
2019-Apr-13 22:28N 38°43' W 009°07'0 0.0
2019-Apr-13 21:58N 38°43' W 009°07'0 0.0
2019-Apr-13 21:28N 38°43' W 009°07'0 0.0
2019-Apr-13 20:58N 38°43' W 009°07'0 0.0
2019-Apr-13 20:28N 38°43' W 009°07'0 0.0
2019-Apr-13 19:58N 38°43' W 009°07'  
Track history (hours):
 
Tides and Currents Weather Stations Pressure Air Temp Water Temp Dewpoint Dewpoint Depression Visibility Wind Speed Wind Dir Waves Ship Positions

Wind Star

Operator: Holland America Line

Last reported at 2019-Apr-23 19:42 UTC. Time now 2019-Apr-24 22:16 UTC.
Position N 39°06' E 002°59'.

Length 134 m; draft 4.1 m.

Type: Ship. MMSI: 309163000.

Date/timePositionNaut miles runAvg speedWind from/ knotsBaromVisibWave heightAir tempDewpointWater temp
2019-Apr-23 19:42N 39°06' E 002°59'20 8.3
2019-Apr-23 17:19N 39°20' E 002°41'3 8.4
2019-Apr-23 17:00N 39°23' E 002°41'4 8.5
2019-Apr-23 16:30N 39°27' E 002°40'4 8.4
2019-Apr-23 16:01N 39°31' E 002°39'2 4.5
2019-Apr-23 15:31N 39°33' E 002°38'0 0.0
2019-Apr-23 14:58N 39°33' E 002°38'0 0.0
2019-Apr-23 14:28N 39°33' E 002°38'0 0.0
2019-Apr-23 14:01N 39°33' E 002°38'0 0.0
2019-Apr-23 13:28N 39°33' E 002°38'0 0.0
2019-Apr-23 13:01N 39°33' E 002°38'0 0.0
2019-Apr-23 12:31N 39°33' E 002°38'0 0.0
2019-Apr-23 11:58N 39°33' E 002°38'0 0.0
2019-Apr-23 11:31N 39°33' E 002°38'0 0.0
2019-Apr-23 11:01N 39°33' E 002°38'0 0.0
2019-Apr-23 10:28N 39°33' E 002°38'0 0.0
2019-Apr-23 09:58N 39°33' E 002°38'0 0.0
2019-Apr-23 09:31N 39°33' E 002°38'0 0.0
2019-Apr-23 08:58N 39°33' E 002°38'0 0.0
2019-Apr-23 08:31N 39°33' E 002°38'0 0.0
2019-Apr-23 08:01N 39°33' E 002°38'0 0.0
2019-Apr-23 07:28N 39°33' E 002°38'0 0.0
2019-Apr-23 07:01N 39°33' E 002°38'0 0.6
2019-Apr-23 06:30N 39°33' E 002°38'2 4.4
2019-Apr-23 06:00N 39°31' E 002°38'3 5.1
2019-Apr-23 05:30N 39°29' E 002°36'3 6.8
2019-Apr-23 05:00N 39°27' E 002°33'3 6.5
2019-Apr-23 04:29N 39°26' E 002°29'3 6.7
2019-Apr-23 04:00N 39°28' E 002°25'97 9.1
2019-Apr-22 17:23N 41°03' E 002°05'4 9.9
2019-Apr-22 17:00N 41°07' E 002°06'510.0
2019-Apr-22 16:30N 41°12' E 002°09'5 9.6
2019-Apr-22 16:00N 41°16' E 002°10'5 9.2
2019-Apr-22 15:30N 41°21' E 002°10'0 0.9
2019-Apr-22 15:00N 41°21' E 002°11'0 0.0
2019-Apr-22 14:30N 41°21' E 002°11'0 0.0
2019-Apr-22 14:00N 41°21' E 002°11'0 0.0
2019-Apr-22 13:30N 41°21' E 002°11'0 0.0
2019-Apr-22 13:00N 41°21' E 002°11'0 0.0
2019-Apr-22 12:30N 41°21' E 002°11'0 0.0
2019-Apr-22 12:00N 41°21' E 002°11'0 0.0
2019-Apr-22 11:30N 41°21' E 002°11'0 0.0
2019-Apr-22 11:00N 41°21' E 002°11'0 0.0
2019-Apr-22 10:30N 41°21' E 002°11'0 0.0
2019-Apr-22 10:00N 41°21' E 002°11'0 0.0
2019-Apr-22 09:30N 41°21' E 002°11'0 0.0
2019-Apr-22 09:00N 41°21' E 002°11'0 0.0
2019-Apr-22 08:30N 41°21' E 002°11'0 0.0
2019-Apr-22 08:00N 41°21' E 002°11'0 0.0
2019-Apr-22 07:30N 41°21' E 002°11'0 0.0
2019-Apr-22 07:00N 41°21' E 002°11'0 0.0
2019-Apr-22 06:30N 41°21' E 002°11'0 0.0
2019-Apr-22 06:00N 41°21' E 002°11'0 0.0
2019-Apr-22 05:30N 41°21' E 002°11'0 0.0
2019-Apr-22 05:00N 41°21' E 002°11'0 0.0
2019-Apr-22 04:30N 41°21' E 002°11'0 0.0
2019-Apr-22 04:00N 41°21' E 002°11'0 0.0
2019-Apr-22 03:30N 41°21' E 002°11'0 0.0
2019-Apr-22 02:57N 41°21' E 002°11'0 0.0
2019-Apr-22 02:30N 41°21' E 002°11'0 0.0
2019-Apr-22 02:00N 41°21' E 002°11'0 0.0
2019-Apr-22 01:30N 41°21' E 002°11'0 0.0
2019-Apr-22 01:00N 41°21' E 002°11'0 0.0
2019-Apr-22 00:30N 41°21' E 002°11'0 0.0
2019-Apr-22 00:00N 41°21' E 002°11'0 0.0
2019-Apr-21 23:30N 41°21' E 002°11'0 0.0
2019-Apr-21 23:00N 41°21' E 002°11'0 0.0
2019-Apr-21 22:30N 41°21' E 002°11'0 0.0
2019-Apr-21 22:00N 41°21' E 002°11'0 0.0
2019-Apr-21 21:30N 41°21' E 002°11'0 0.0
2019-Apr-21 20:57N 41°21' E 002°11'0 0.0
2019-Apr-21 20:30N 41°21' E 002°11'0 0.0
2019-Apr-21 20:00N 41°21' E 002°11'0 0.0
2019-Apr-21 19:30N 41°21' E 002°11'0 0.0
2019-Apr-21 19:00N 41°21' E 002°11'0 0.0
2019-Apr-21 18:30N 41°21' E 002°11'0 0.0
2019-Apr-21 18:00N 41°21' E 002°11'0 0.2
2019-Apr-21 17:30N 41°21' E 002°10'2 3.2
2019-Apr-21 17:00N 41°20' E 002°10'3 5.3
2019-Apr-21 16:30N 41°17' E 002°11'2 4.6
2019-Apr-21 16:00N 41°16' E 002°14'2 3.8
2019-Apr-21 15:30N 41°15' E 002°12'2 3.5
2019-Apr-21 15:00N 41°14' E 002°10'3 5.6
2019-Apr-21 14:30N 41°11' E 002°08'3 5.9
2019-Apr-21 14:00N 41°09' E 002°07'3 5.9
2019-Apr-21 13:26N 41°05' E 002°05'2 5.6
2019-Apr-21 13:00N 41°03' E 002°04'3 5.5
2019-Apr-21 12:26N 41°01' E 002°02'  
2019-Apr-18 16:56N 36°46' W 002°27'4 8.1
2019-Apr-18 16:30N 36°50' W 002°28'0 0.3
2019-Apr-18 15:59N 36°50' W 002°28'0 0.0
2019-Apr-18 15:29N 36°50' W 002°28'0 0.0
2019-Apr-18 14:59N 36°50' W 002°28'0 0.0
2019-Apr-18 14:29N 36°50' W 002°28'0 0.0
2019-Apr-18 13:59N 36°50' W 002°28'0 0.0
2019-Apr-18 13:29N 36°50' W 002°28'0 0.0
2019-Apr-18 12:59N 36°50' W 002°28'0 0.0
2019-Apr-18 12:29N 36°50' W 002°28'0 0.0
2019-Apr-18 11:56N 36°50' W 002°28'0 0.0
2019-Apr-18 11:26N 36°50' W 002°28'0 0.0
2019-Apr-18 10:56N 36°50' W 002°28'0 0.0
2019-Apr-18 10:29N 36°50' W 002°28'0 0.0
2019-Apr-18 09:53N 36°50' W 002°28'0 0.0
2019-Apr-18 09:29N 36°50' W 002°28'0 0.0
2019-Apr-18 08:56N 36°50' W 002°28'0 0.0
2019-Apr-18 08:26N 36°50' W 002°28'0 0.0
2019-Apr-18 07:56N 36°50' W 002°28'0 0.0
2019-Apr-18 07:29N 36°50' W 002°28'0 0.0
2019-Apr-18 06:59N 36°50' W 002°28'0 0.0
2019-Apr-18 06:29N 36°50' W 002°28'0 0.0
2019-Apr-18 05:41N 36°50' W 002°28'0 0.0
2019-Apr-18 05:29N 36°50' W 002°28'0 0.0
2019-Apr-18 05:00N 36°50' W 002°28'0 0.1
2019-Apr-18 04:30N 36°50' W 002°28'1 3.0
2019-Apr-18 04:01N 36°48' W 002°28'4 7.3
2019-Apr-18 03:30N 36°45' W 002°30'  
2019-Apr-15 04:34N 36°52' W 009°34'12 8.5
2019-Apr-15 03:09N 37°04' W 009°36'4 8.2
2019-Apr-15 02:40N 37°08' W 009°36'4 8.1
2019-Apr-15 02:07N 37°12' W 009°35'1 8.1
2019-Apr-15 01:58N 37°14' W 009°35'510.0
2019-Apr-15 01:29N 37°18' W 009°34'510.9
2019-Apr-15 01:00N 37°24' W 009°33'611.1
2019-Apr-15 00:30N 37°29' W 009°33'611.3
2019-Apr-14 23:59N 37°35' W 009°32'711.5
2019-Apr-14 23:22N 37°42' W 009°31'411.5
2019-Apr-14 23:00N 37°46' W 009°31'611.3
2019-Apr-14 22:30N 37°52' W 009°30'611.2
2019-Apr-14 22:00N 37°57' W 009°29'611.3
2019-Apr-14 21:30N 38°03' W 009°28'611.1
2019-Apr-14 21:00N 38°08' W 009°27'510.7
2019-Apr-14 20:30N 38°14' W 009°27'510.8
2019-Apr-14 20:00N 38°19' W 009°26'511.0
2019-Apr-14 19:30N 38°25' W 009°25'511.0
2019-Apr-14 19:00N 38°30' W 009°24'510.9
2019-Apr-14 18:30N 38°35' W 009°23'5 9.1
2019-Apr-14 18:00N 38°39' W 009°20'5 9.7
2019-Apr-14 17:29N 38°41' W 009°14'510.4
2019-Apr-14 17:00N 38°42' W 009°08'1 1.1
2019-Apr-14 16:28N 38°43' W 009°07'0 0.0
2019-Apr-14 15:58N 38°43' W 009°07'0 0.0
2019-Apr-14 15:19N 38°43' W 009°07'0 0.0
2019-Apr-14 14:58N 38°43' W 009°07'0 0.0
2019-Apr-14 14:28N 38°43' W 009°07'0 0.0
2019-Apr-14 13:55N 38°43' W 009°07'0 0.0
2019-Apr-14 13:28N 38°43' W 009°07'0 0.0
2019-Apr-14 12:58N 38°43' W 009°07'0 0.0
2019-Apr-14 12:25N 38°43' W 009°07'0 0.0
2019-Apr-14 11:55N 38°43' W 009°07'0 0.0
2019-Apr-14 11:28N 38°43' W 009°07'0 0.0
2019-Apr-14 10:55N 38°43' W 009°07'0 0.0
2019-Apr-14 10:28N 38°43' W 009°07'0 0.0
2019-Apr-14 09:55N 38°43' W 009°07'0 0.0
2019-Apr-14 09:28N 38°43' W 009°07'0 0.0
2019-Apr-14 08:58N 38°43' W 009°07'0 0.0
2019-Apr-14 08:28N 38°43' W 009°07'0 0.0
2019-Apr-14 07:58N 38°43' W 009°07'0 0.0
2019-Apr-14 07:25N 38°43' W 009°07'0 0.0
2019-Apr-14 06:58N 38°43' W 009°07'0 0.0
2019-Apr-14 06:28N 38°43' W 009°07'0 0.0
2019-Apr-14 05:58N 38°43' W 009°07'0 0.0
2019-Apr-14 05:28N 38°43' W 009°07'0 0.0
2019-Apr-14 04:55N 38°43' W 009°07'0 0.0
2019-Apr-14 04:25N 38°43' W 009°07'0 0.0
2019-Apr-14 03:52N 38°43' W 009°07'0 0.0
2019-Apr-14 03:28N 38°43' W 009°07'0 0.0
2019-Apr-14 02:55N 38°43' W 009°07'0 0.0
2019-Apr-14 02:28N 38°43' W 009°07'0 0.0
2019-Apr-14 01:58N 38°43' W 009°07'0 0.0
2019-Apr-14 01:25N 38°43' W 009°07'0 0.0
2019-Apr-14 00:58N 38°43' W 009°07'0 0.0
2019-Apr-14 00:28N 38°43' W 009°07'0 0.0
2019-Apr-13 23:55N 38°43' W 009°07'0 0.0
2019-Apr-13 23:28N 38°43' W 009°07'0 0.0
2019-Apr-13 22:58N 38°43' W 009°07'0 0.0
2019-Apr-13 22:28N 38°43' W 009°07'0 0.0
2019-Apr-13 21:58N 38°43' W 009°07'0 0.0
2019-Apr-13 21:28N 38°43' W 009°07'0 0.0
2019-Apr-13 20:58N 38°43' W 009°07'0 0.0
2019-Apr-13 20:28N 38°43' W 009°07'0 0.0
2019-Apr-13 19:58N 38°43' W 009°07'  

Dump ship's entire track history